Time;durP1;ratioP1;P1;durP2;ratioP2;P2;SDS_P1;SDS_P2;PMS_P1;PMS_P2;Temp;Humidity;BMP_temperature;BMP_pressure;BME280_temperature;BME280_humidity;BME280_pressure;Samples;Min_cycle;Max_cycle;Signal;HPM_P1;HPM_P2
2022/11/07 00:01:53;;;;;;;11.50;4.93;;;;;;;10.29;93.77;100705.81;5063744;28;20037;-76
2022/11/07 00:04:19;;;;;;;10.75;4.63;;;;;;;10.31;93.93;100705.84;5064356;28;20044;-75
2022/11/07 00:06:45;;;;;;;9.75;4.75;;;;;;;10.34;93.72;100705.94;5063328;28;20025;-75
2022/11/07 00:09:10;;;;;;;11.05;4.78;;;;;;;10.36;93.55;100701.66;5064174;28;20032;-76
2022/11/07 00:11:36;;;;;;;9.43;4.38;;;;;;;10.36;93.85;100712.06;5065006;28;20188;-77
2022/11/07 00:14:01;;;;;;;11.52;4.90;;;;;;;10.35;93.27;100712.91;5063736;28;20294;-76
2022/11/07 00:16:28;;;;;;;9.52;4.43;;;;;;;10.34;93.25;100716.34;5064914;28;20040;-67
2022/11/07 00:18:53;;;;;;;12.55;4.68;;;;;;;10.29;93.34;100715.34;5064216;28;20482;-67
2022/11/07 00:21:18;;;;;;;12.32;4.80;;;;;;;10.26;93.59;100714.41;5063814;28;20179;-67
2022/11/07 00:23:44;;;;;;;8.48;4.88;;;;;;;10.22;93.78;100717.78;5063636;28;20055;-67
2022/11/07 00:26:12;;;;;;;11.32;4.95;;;;;;;10.21;93.97;100721.25;5063900;28;20096;-66
2022/11/07 00:28:40;;;;;;;11.27;4.78;;;;;;;10.16;93.84;100717.66;5064061;28;20032;-67
2022/11/07 00:31:07;;;;;;;8.75;4.43;;;;;;;10.13;94.17;100725.41;5064513;28;20033;-67
2022/11/07 00:33:32;;;;;;;13.68;5.25;;;;;;;10.11;94.29;100721.91;5063915;28;20037;-67
2022/11/07 00:35:58;;;;;;;13.63;5.00;;;;;;;10.10;94.33;100715.78;5063738;28;20048;-67
2022/11/07 00:38:23;;;;;;;13.27;4.93;;;;;;;10.09;94.27;100715.75;5063976;28;20029;-67
2022/11/07 00:41:04;;;;;;;10.57;5.30;;;;;;;10.08;94.40;100724.44;5063458;28;20287;-67
2022/11/07 00:43:29;;;;;;;12.88;4.82;;;;;;;10.06;94.42;100720.88;5062966;28;20025;-67
2022/11/07 00:45:55;;;;;;;12.60;4.55;;;;;;;10.05;94.63;100721.72;5062837;28;20037;-67
2022/11/07 00:48:20;;;;;;;12.60;5.13;;;;;;;10.04;94.57;100725.19;5064262;28;20033;-75
2022/11/07 00:50:47;;;;;;;10.65;4.80;;;;;;;10.03;94.72;100728.63;5063500;28;20025;-74
2022/11/07 00:53:12;;;;;;;8.20;4.75;;;;;;;10.03;94.85;100728.63;5062704;28;20092;-76
2022/11/07 00:55:37;;;;;;;8.18;4.65;;;;;;;10.02;94.79;100732.06;5063168;28;20036;-76
2022/11/07 00:58:03;;;;;;;9.88;4.53;;;;;;;10.00;94.77;100732.03;5063546;28;20036;-76
2022/11/07 01:00:28;;;;;;;10.05;4.75;;;;;;;10.00;94.79;100731.16;5063154;28;20056;-76
2022/11/07 01:05:38;;;;;;;11.52;4.80;;;;;;;9.97;95.07;100739.78;5063186;28;20032;-76
2022/11/07 01:08:03;;;;;;;10.88;5.18;;;;;;;9.98;95.36;100736.34;5063212;28;20021;-76
2022/11/07 01:10:29;;;;;;;10.38;4.50;;;;;;;9.99;95.35;100745.88;5063634;28;20025;-77
2022/11/07 01:12:54;;;;;;;10.57;4.35;;;;;;;10.00;95.21;100732.03;5063138;28;20184;-75
2022/11/07 01:15:19;;;;;;;9.85;4.57;;;;;;;10.00;95.44;100742.44;5063086;28;20280;-76
2022/11/07 01:17:45;;;;;;;10.50;4.80;;;;;;;10.01;95.41;100741.63;5062365;28;20048;-66
2022/11/07 01:20:10;;;;;;;10.65;4.60;;;;;;;10.01;95.33;100746.81;5063124;28;20021;-66
2022/11/07 01:22:36;;;;;;;10.80;4.55;;;;;;;10.02;95.42;100756.41;5062584;28;20025;-66
2022/11/07 01:25:01;;;;;;;9.68;4.68;;;;;;;10.02;95.31;100765.91;5062603;28;20028;-67
2022/11/07 01:27:26;;;;;;;14.57;4.88;;;;;;;10.00;95.51;100763.28;5062949;28;20070;-66
2022/11/07 01:29:51;;;;;;;10.13;4.63;;;;;;;10.01;95.51;100769.38;5062727;28;20287;-67
2022/11/07 01:32:17;;;;;;;10.15;4.90;;;;;;;10.00;95.60;100763.28;5062014;28;20029;-67
2022/11/07 01:34:42;;;;;;;8.88;4.32;;;;;;;10.01;95.08;100771.97;5063386;28;20391;-67
2022/11/07 01:37:07;;;;;;;9.63;4.38;;;;;;;9.99;95.34;100769.31;5062827;28;20037;-67
2022/11/07 01:39:33;;;;;;;11.07;4.50;;;;;;;10.00;95.54;100767.59;5062619;28;20219;-66
2022/11/07 01:41:58;;;;;;;12.18;4.70;;;;;;;9.99;95.68;100768.44;5062200;28;20025;-67
2022/11/07 01:44:24;;;;;;;9.40;4.55;;;;;;;9.99;96.03;100771.91;5061961;28;20214;-67
2022/11/07 01:46:51;;;;;;;12.82;5.07;;;;;;;10.00;96.01;100759.81;5077752;28;20035;-67
2022/11/07 01:49:21;;;;;;;10.18;4.60;;;;;;;10.00;96.08;100771.06;5061856;28;20240;-66
2022/11/07 01:51:49;;;;;;;12.15;4.95;;;;;;;10.02;95.98;100760.69;5062578;28;20025;-67
2022/11/07 01:54:19;;;;;;;8.93;4.38;;;;;;;10.04;96.12;100766.84;5061956;28;20057;-66
2022/11/07 01:56:45;;;;;;;13.55;5.00;;;;;;;10.04;96.11;100761.63;5061740;28;20021;-67
2022/11/07 01:59:15;;;;;;;9.85;4.68;;;;;;;10.06;96.10;100754.72;5062210;28;20067;-66
2022/11/07 02:01:41;;;;;;;12.05;4.35;;;;;;;10.09;96.08;100767.81;5061089;28;20168;-67
2022/11/07 02:04:08;;;;;;;14.30;4.70;;;;;;;10.10;96.39;100769.59;5063000;28;20084;-66
2022/11/07 02:06:40;;;;;;;9.60;4.15;;;;;;;10.12;96.29;100773.09;5062274;28;20039;-67
2022/11/07 02:09:06;;;;;;;12.68;4.65;;;;;;;10.13;96.34;100774.88;5062184;28;20090;-67
2022/11/07 02:11:32;;;;;;;10.57;4.60;;;;;;;10.14;96.23;100771.44;5061591;28;20323;-67
2022/11/07 02:13:58;;;;;;;10.82;4.60;;;;;;;10.15;96.34;100767.09;5062870;28;20051;-67
2022/11/07 02:16:23;;;;;;;11.40;4.70;;;;;;;10.16;96.12;100774.06;5062189;28;20025;-67
2022/11/07 02:18:48;;;;;;;10.50;4.70;;;;;;;10.17;96.13;100784.50;5061344;28;20051;-66
2022/11/07 02:21:22;;;;;;;8.70;4.38;;;;;;;10.18;96.67;100782.78;5077387;28;20052;-66
2022/11/07 02:23:56;;;;;;;12.65;4.55;;;;;;;10.18;96.46;100775.88;5061793;28;20017;-66
2022/11/07 02:26:22;;;;;;;9.20;4.40;;;;;;;10.19;96.53;100769.78;5061647;28;20028;-67
2022/11/07 02:28:48;;;;;;;11.65;5.25;;;;;;;10.22;96.64;100774.22;5061975;28;20044;-66
2022/11/07 02:31:14;;;;;;;13.85;4.53;;;;;;;10.22;96.35;100777.69;5060406;28;20074;-66
2022/11/07 02:33:40;;;;;;;9.05;4.30;;;;;;;10.23;96.28;100779.44;5077396;28;20033;-67
2022/11/07 02:36:14;;;;;;;11.40;4.40;;;;;;;10.22;96.24;100782.88;5061578;28;20049;-67
2022/11/07 02:38:39;;;;;;;8.85;3.90;;;;;;;10.21;96.40;100788.97;5060203;28;20025;-66
2022/11/07 02:41:11;;;;;;;14.45;4.80;;;;;;;10.22;96.32;100779.41;5061560;28;20033;-66
2022/11/07 02:43:41;;;;;;;8.88;4.25;;;;;;;10.22;96.91;100774.22;5061922;28;20330;-66
2022/11/07 02:46:09;;;;;;;12.65;5.22;;;;;;;10.22;96.67;100764.66;5077228;28;20226;-66
2022/11/07 02:48:46;;;;;;;11.93;4.43;;;;;;;10.24;96.87;100765.59;5061113;28;20075;-67
2022/11/07 02:51:12;;;;;;;11.10;4.80;;;;;;;10.25;96.78;100764.75;5060924;28;20044;-66
2022/11/07 02:53:38;;;;;;;12.75;4.70;;;;;;;10.24;96.74;100768.19;5061036;28;20075;-66
2022/11/07 02:56:04;;;;;;;11.68;4.72;;;;;;;10.24;96.69;100776.00;5057212;28;20049;-67
2022/11/07 02:58:29;;;;;;;15.52;4.80;;;;;;;10.25;96.83;100769.06;5061446;28;20104;-66
2022/11/07 03:01:01;;;;;;;12.23;4.75;;;;;;;10.23;96.65;100771.63;5061443;28;20047;-66
2022/11/07 03:03:28;;;;;;;13.02;4.80;;;;;;;10.22;96.87;100762.06;5052219;28;20079;-67
2022/11/07 03:05:53;;;;;;;13.43;4.70;;;;;;;10.21;96.85;100760.31;5060571;28;20045;-66
2022/11/07 03:08:18;;;;;;;10.20;4.70;;;;;;;10.22;96.83;100769.00;5062729;28;20025;-67
2022/11/07 03:10:44;;;;;;;12.80;4.72;;;;;;;10.22;96.88;100767.25;5065563;28;20331;-66
2022/11/07 03:13:09;;;;;;;15.45;4.50;;;;;;;10.20;96.87;100766.34;5065033;28;20037;-66
2022/11/07 03:15:34;;;;;;;12.48;4.30;;;;;;;10.20;96.97;100763.75;5065992;28;20021;-67
2022/11/07 03:17:59;;;;;;;12.68;4.45;;;;;;;10.19;96.92;100768.94;5063727;28;20048;-76
2022/11/07 03:20:25;;;;;;;14.98;4.82;;;;;;;10.19;96.97;100768.94;5066065;28;20017;-76
2022/11/07 03:22:50;;;;;;;14.25;4.47;;;;;;;10.17;97.21;100773.25;5065136;28;20024;-75
2022/11/07 03:25:15;;;;;;;10.55;4.65;;;;;;;10.18;97.03;100772.38;5065225;28;20037;-76
2022/11/07 03:27:50;;;;;;;14.55;5.03;;;;;;;10.18;97.29;100777.56;5064572;28;20033;-76
2022/11/07 03:30:16;;;;;;;16.13;4.57;;;;;;;10.17;96.98;100770.63;5065350;28;20021;-75
2022/11/07 03:32:41;;;;;;;14.57;4.38;;;;;;;10.16;97.17;100764.53;5065469;28;20029;-75
2022/11/07 03:35:07;;;;;;;16.83;4.63;;;;;;;10.16;97.30;100767.13;5064893;28;20181;-76
2022/11/07 03:37:32;;;;;;;12.10;4.07;;;;;;;10.16;97.35;100759.31;5065049;28;20234;-76
2022/11/07 03:39:58;;;;;;;13.20;4.07;;;;;;;10.18;97.64;100769.75;5065422;28;20306;-76
2022/11/07 03:42:23;;;;;;;11.35;4.60;;;;;;;10.19;97.21;100767.19;5064464;28;20047;-76
2022/11/07 03:44:48;;;;;;;15.40;4.40;;;;;;;10.21;97.48;100773.34;5065110;28;20028;-76
2022/11/07 03:47:13;;;;;;;12.30;4.38;;;;;;;10.24;97.27;100769.94;5064246;28;20032;-76
2022/11/07 03:49:39;;;;;;;11.52;4.03;;;;;;;10.26;97.31;100774.31;5064748;28;20191;-75
2022/11/07 03:52:04;;;;;;;17.80;4.55;;;;;;;10.30;97.26;100776.97;5064504;28;20074;-76
2022/11/07 03:54:29;;;;;;;15.18;4.85;;;;;;;10.31;97.08;100778.75;5064452;28;20044;-75
2022/11/07 03:56:55;;;;;;;15.05;4.22;;;;;;;10.32;97.06;100775.31;5064369;28;20242;-67
2022/11/07 03:59:20;;;;;;;16.95;4.60;;;;;;;10.33;97.03;100777.09;5064807;28;20035;-67
2022/11/07 04:01:45;;;;;;;14.25;4.28;;;;;;;10.35;96.95;100775.41;5064037;28;20052;-67
2022/11/07 04:04:11;;;;;;;14.05;4.47;;;;;;;10.37;96.63;100771.09;5064417;28;20056;-66
2022/11/07 04:06:37;;;;;;;13.45;4.03;;;;;;;10.38;96.72;100772.88;5063909;28;20106;-66
2022/11/07 04:09:03;;;;;;;14.27;4.00;;;;;;;10.39;96.82;100777.25;5065035;28;20016;-67
2022/11/07 04:17:18;;;;;;;11.82;3.92;;;;;;;10.44;96.60;100779.13;5063371;28;20036;-66
2022/11/07 04:19:43;;;;;;;;;;;;;;;10.48;95.87;100777.44;5064766;28;20059;-67
2022/11/07 04:22:08;;;;;;;14.27;4.28;;;;;;;10.47;96.14;100777.41;5060403;28;19924;-67
2022/11/07 04:24:34;;;;;;;12.00;3.95;;;;;;;10.47;96.24;100780.03;5054774;28;20214;-66
2022/11/07 04:29:43;;;;;;;12.38;3.83;;;;;;;10.45;95.97;100782.59;5063963;28;20098;-75
2022/11/07 04:32:08;;;;;;;15.82;4.28;;;;;;;10.44;95.88;100783.44;5063631;28;20032;-76
2022/11/07 04:34:33;;;;;;;10.80;3.95;;;;;;;10.42;95.97;100785.13;5063896;28;20060;-76
2022/11/07 04:36:58;;;;;;;16.67;4.05;;;;;;;10.41;95.97;100789.47;5063575;28;20070;-76
2022/11/07 04:39:24;;;;;;;17.13;4.80;;;;;;;10.40;96.00;100784.22;5063289;28;20036;-76
2022/11/07 04:41:49;;;;;;;15.18;4.00;;;;;;;10.39;95.74;100782.47;5063829;28;20021;-76
2022/11/07 04:44:14;;;;;;;14.13;4.15;;;;;;;10.38;95.95;100784.16;5063774;28;20040;-76
2022/11/07 04:46:40;;;;;;;14.65;4.45;;;;;;;10.37;95.59;100781.53;5063636;28;20052;-76
2022/11/07 04:49:05;;;;;;;16.17;4.75;;;;;;;10.36;96.01;100787.59;5063685;28;20033;-76
2022/11/07 04:51:30;;;;;;;18.30;4.35;;;;;;;10.38;96.13;100791.09;5063695;28;20649;-76
2022/11/07 04:53:55;;;;;;;15.38;4.18;;;;;;;10.37;96.28;100787.63;5063608;28;20033;-76
2022/11/07 04:56:21;;;;;;;16.85;4.32;;;;;;;10.39;96.12;100790.28;5063839;28;20028;-76
2022/11/07 04:58:46;;;;;;;15.77;4.00;;;;;;;10.39;95.81;100793.75;5062636;28;20100;-76
2022/11/07 05:01:11;;;;;;;17.42;4.30;;;;;;;10.40;96.24;100789.44;5063582;28;20021;-76
2022/11/07 05:03:37;;;;;;;14.77;3.80;;;;;;;10.41;95.98;100786.88;5063323;28;20308;-76
2022/11/07 05:06:03;;;;;;;20.00;4.38;;;;;;;10.42;95.94;100790.34;5063650;28;20307;-76
2022/11/07 05:08:29;;;;;;;12.88;3.80;;;;;;;10.42;96.01;100793.81;5063213;28;20264;-76
2022/11/07 05:10:54;;;;;;;13.10;4.30;;;;;;;10.43;95.89;100794.72;5062055;28;20028;-76
2022/11/07 05:13:20;;;;;;;15.48;4.53;;;;;;;10.44;95.91;100793.84;5062499;28;20040;-76
2022/11/07 05:15:46;;;;;;;15.00;4.63;;;;;;;10.45;95.49;100795.63;5063393;28;20029;-76
2022/11/07 05:18:11;;;;;;;15.00;3.80;;;;;;;10.43;95.65;100792.97;5063084;28;20208;-76
2022/11/07 05:20:37;;;;;;;14.23;3.60;;;;;;;10.44;95.27;100801.66;5063263;28;20147;-76
2022/11/07 05:23:20;;;;;;;18.83;4.47;;;;;;;10.42;95.57;100805.97;5063247;28;20087;-76
2022/11/07 05:25:54;;;;;;;13.15;3.85;;;;;;;10.42;95.44;100804.22;5064091;28;20261;-76
2022/11/07 05:28:24;;;;;;;14.75;3.70;;;;;;;10.43;95.39;100802.53;5052925;28;20032;-67
2022/11/07 05:30:50;;;;;;;14.55;3.85;;;;;;;10.42;95.34;100798.16;5060945;28;20072;-66
2022/11/07 05:33:16;;;;;;;17.17;4.68;;;;;;;10.42;95.36;100805.97;5062715;28;20047;-67
2022/11/07 05:35:43;;;;;;;11.27;3.95;;;;;;;10.42;95.60;100801.63;5062504;28;20067;-66
2022/11/07 05:38:09;;;;;;;19.88;4.20;;;;;;;10.43;95.40;100810.34;5062129;28;20032;-66
2022/11/07 05:40:35;;;;;;;16.60;4.40;;;;;;;10.44;95.50;100801.66;5062946;28;20075;-66
2022/11/07 05:43:02;;;;;;;14.18;4.20;;;;;;;10.46;95.62;100802.59;5062323;28;20247;-66
2022/11/07 05:45:29;;;;;;;14.43;4.07;;;;;;;10.47;95.41;100809.56;5078542;28;20036;-67
2022/11/07 05:47:58;;;;;;;12.25;3.58;;;;;;;10.49;95.18;100807.00;5062852;28;20037;-67
2022/11/07 05:50:24;;;;;;;14.52;3.65;;;;;;;10.50;95.09;100803.53;5062124;28;20271;-67
2022/11/07 05:52:50;;;;;;;19.88;4.55;;;;;;;10.50;95.17;100800.94;5060032;28;20036;-67
2022/11/07 05:55:15;;;;;;;15.75;4.25;;;;;;;10.51;95.39;100802.69;5063024;28;20017;-67
2022/11/07 05:57:40;;;;;;;15.20;4.20;;;;;;;10.51;95.08;100798.34;5062155;28;20226;-67
2022/11/07 06:00:06;;;;;;;16.02;3.78;;;;;;;10.54;94.98;100807.97;5061075;28;20072;-67
2022/11/07 06:02:31;;;;;;;14.40;4.10;;;;;;;10.53;94.62;100801.91;5061490;28;20321;-67
2022/11/07 06:04:57;;;;;;;14.23;3.85;;;;;;;10.54;95.07;100801.06;5063145;28;20131;-66
2022/11/07 06:07:22;;;;;;;16.05;4.47;;;;;;;10.57;95.08;100805.44;5062153;28;20020;-67
2022/11/07 06:09:47;;;;;;;15.13;4.03;;;;;;;10.58;94.67;100805.47;5063135;28;20275;-67
2022/11/07 06:12:12;;;;;;;15.13;4.70;;;;;;;10.60;95.06;100809.00;5055125;28;20276;-67
2022/11/07 06:14:38;;;;;;;14.02;4.13;;;;;;;10.61;94.54;100807.28;5062180;28;20028;-67
2022/11/07 06:17:03;;;;;;;15.65;4.30;;;;;;;10.63;94.79;100807.31;5061976;28;20098;-67
2022/11/07 06:19:29;;;;;;;18.75;3.83;;;;;;;10.65;94.66;100808.25;5062485;28;20195;-67
2022/11/07 06:21:54;;;;;;;15.07;3.65;;;;;;;10.67;94.51;100809.13;5061911;28;20025;-67
2022/11/07 06:24:19;;;;;;;14.88;4.00;;;;;;;10.69;94.41;100808.34;5061855;28;20275;-67
2022/11/07 06:26:44;;;;;;;13.52;4.03;;;;;;;10.69;94.34;100808.34;5061471;28;20039;-67
2022/11/07 06:29:10;;;;;;;11.18;3.53;;;;;;;10.70;94.50;100810.09;5062010;28;20028;-67
2022/11/07 06:31:35;;;;;;;12.40;3.55;;;;;;;10.71;94.38;100813.59;5060137;28;20279;-67
2022/11/07 06:34:00;;;;;;;14.80;4.40;;;;;;;10.73;94.48;100815.38;5060907;28;20045;-67
2022/11/07 06:36:25;;;;;;;18.02;3.85;;;;;;;10.74;94.54;100818.84;5062065;28;20256;-67
2022/11/07 06:38:52;;;;;;;16.58;3.95;;;;;;;10.76;94.27;100824.97;5061182;28;20091;-67
2022/11/07 06:41:17;;;;;;;18.13;4.05;;;;;;;10.77;94.28;100819.78;5061657;28;20033;-67
2022/11/07 06:43:43;;;;;;;15.38;4.05;;;;;;;10.79;94.07;100825.06;5060971;28;20075;-66
2022/11/07 06:46:11;;;;;;;18.63;4.03;;;;;;;10.81;94.30;100825.97;5062418;28;20040;-67
2022/11/07 06:48:36;;;;;;;20.50;4.45;;;;;;;10.82;94.08;100819.91;5061135;28;20096;-67
2022/11/07 06:51:04;;;;;;;19.70;4.20;;;;;;;10.84;94.29;100833.84;5077984;28;20037;-67
2022/11/07 06:53:30;;;;;;;14.60;4.00;;;;;;;10.84;94.23;100839.06;5059697;28;20029;-67
2022/11/07 06:55:58;;;;;;;14.73;3.95;;;;;;;10.86;94.14;100837.38;5062291;28;20017;-68
2022/11/07 06:58:23;;;;;;;11.23;3.78;;;;;;;10.88;94.35;100835.69;5061301;28;20049;-76
2022/11/07 07:00:49;;;;;;;15.15;3.80;;;;;;;10.90;93.82;100831.38;5061171;28;20033;-76
2022/11/07 07:03:14;;;;;;;16.00;4.10;;;;;;;10.92;93.81;100842.72;5060096;28;20036;-76
2022/11/07 07:05:39;;;;;;;15.15;3.83;;;;;;;10.95;94.11;100837.56;5061257;28;20025;-77
2022/11/07 07:08:06;;;;;;;12.35;3.33;;;;;;;10.96;93.96;100834.13;5061203;28;20328;-76
2022/11/07 07:10:42;;;;;;;14.75;4.10;;;;;;;10.98;94.01;100854.13;5061975;28;20032;-77
2022/11/07 07:13:08;;;;;;;14.95;4.68;;;;;;;10.98;94.06;100854.13;5060431;28;20055;-76
2022/11/07 07:15:33;;;;;;;12.40;3.85;;;;;;;10.99;94.22;100854.16;5061269;28;20021;-77
2022/11/07 07:17:59;;;;;;;11.05;3.88;;;;;;;10.99;93.93;100848.06;5061376;28;20088;-77
2022/11/07 07:20:25;;;;;;;17.70;3.55;;;;;;;10.99;94.07;100848.94;5061441;28;20177;-77
2022/11/07 07:22:50;;;;;;;17.70;3.80;;;;;;;11.00;94.10;100861.13;5061420;28;20067;-77
2022/11/07 07:25:15;;;;;;;14.90;4.45;;;;;;;11.00;94.08;100865.47;5061222;28;20163;-76
2022/11/07 07:27:41;;;;;;;15.05;3.80;;;;;;;11.02;94.15;100869.91;5060782;28;20036;-77
2022/11/07 07:30:07;;;;;;;14.77;4.05;;;;;;;11.03;93.97;100870.75;5061785;28;20040;-76
2022/11/07 07:32:34;;;;;;;12.90;3.50;;;;;;;11.05;94.02;100863.84;5060443;28;20025;-76
2022/11/07 07:34:59;;;;;;;15.85;3.90;;;;;;;11.07;94.04;100865.66;5060956;28;20295;-76
2022/11/07 07:37:25;;;;;;;12.45;3.67;;;;;;;11.10;93.84;100873.53;5061635;28;20055;-75
2022/11/07 07:39:51;;;;;;;13.25;3.97;;;;;;;11.13;93.82;100872.72;5061752;28;20214;-77
2022/11/07 07:42:16;;;;;;;15.45;3.78;;;;;;;11.16;93.86;100879.75;5061472;28;20049;-76
2022/11/07 07:44:41;;;;;;;11.85;3.63;;;;;;;11.18;94.02;100868.50;5060482;28;20303;-77
2022/11/07 07:47:07;;;;;;;14.13;3.65;;;;;;;11.22;94.07;100879.88;5061150;28;20028;-76
2022/11/07 07:49:32;;;;;;;13.40;3.90;;;;;;;11.25;93.88;100888.66;5061774;28;20021;-77
2022/11/07 07:51:57;;;;;;;15.88;3.53;;;;;;;11.26;94.03;100886.91;5061408;28;20176;-77
2022/11/07 07:54:23;;;;;;;14.85;3.83;;;;;;;11.28;93.90;100880.88;5062519;28;20017;-76
2022/11/07 07:56:48;;;;;;;12.13;3.10;;;;;;;11.32;94.21;100884.41;5064734;28;20067;-77
2022/11/07 07:59:13;;;;;;;14.05;3.53;;;;;;;11.36;94.35;100895.81;5065144;28;20143;-76
2022/11/07 08:01:38;;;;;;;15.82;3.80;;;;;;;11.40;94.27;100885.47;5064552;28;20322;-77
2022/11/07 08:04:04;;;;;;;14.25;3.92;;;;;;;11.45;94.41;100893.38;5064028;28;20064;-76
2022/11/07 08:06:29;;;;;;;16.48;4.13;;;;;;;11.50;94.22;100902.22;5063823;28;20025;-77
2022/11/07 08:08:55;;;;;;;20.05;4.18;;;;;;;11.55;94.06;100899.69;5065140;28;20025;-77
2022/11/07 08:11:20;;;;;;;13.48;3.53;;;;;;;11.57;93.87;100891.03;5064360;28;20021;-76
2022/11/07 08:13:45;;;;;;;17.05;3.90;;;;;;;11.61;93.66;100898.06;5063720;28;20029;-76
2022/11/07 08:16:10;;;;;;;16.80;3.40;;;;;;;11.63;93.85;100900.72;5064222;28;20047;-76
2022/11/07 08:18:38;;;;;;;13.65;3.65;;;;;;;11.64;93.86;100905.97;5064304;28;20051;-77
2022/11/07 08:21:04;;;;;;;12.88;3.42;;;;;;;11.67;93.79;100894.69;5063642;28;20028;-76
2022/11/07 08:23:30;;;;;;;15.82;3.38;;;;;;;11.71;93.82;100900.88;5063608;28;20029;-77
2022/11/07 08:25:57;;;;;;;16.35;3.67;;;;;;;11.75;94.14;100907.91;5064146;28;20206;-77
2022/11/07 08:28:27;;;;;;;12.57;4.00;;;;;;;11.79;94.00;100907.13;5064317;28;20206;-67
2022/11/07 08:31:03;;;;;;;12.35;3.30;;;;;;;11.82;94.10;100901.97;5063005;28;20272;-67
2022/11/07 08:33:29;;;;;;;13.60;4.22;;;;;;;11.84;93.49;100908.97;5079098;28;20040;-67
2022/11/07 08:35:56;;;;;;;19.08;3.90;;;;;;;11.85;93.27;100904.63;5062218;28;20045;-67
2022/11/07 08:38:22;;;;;;;18.88;3.30;;;;;;;11.85;93.20;100909.84;5062166;28;20044;-67
2022/11/07 08:40:51;;;;;;;10.77;3.28;;;;;;;11.82;93.29;100905.44;5062945;28;20043;-66
2022/11/07 08:43:17;;;;;;;15.90;4.10;;;;;;;11.81;93.49;100911.50;5062705;28;20028;-66
2022/11/07 08:45:46;;;;;;;15.63;3.78;;;;;;;11.82;93.45;100917.63;5078774;28;20171;-67
2022/11/07 08:48:11;;;;;;;;;;;;;;;11.87;93.47;100920.34;5064637;28;20032;-67
2022/11/07 08:50:36;;;;;;;16.83;3.80;;;;;;;11.87;93.53;100920.34;5064231;28;19913;-69
2022/11/07 08:53:02;;;;;;;14.77;3.78;;;;;;;11.88;93.74;100928.19;5062264;28;20083;-69
2022/11/07 08:55:27;;;;;;;13.88;3.67;;;;;;;11.92;93.73;100931.72;5062421;28;20040;-69
2022/11/07 08:58:00;;;;;;;14.30;3.63;;;;;;;11.97;93.11;100932.75;5061874;28;20039;-75
2022/11/07 09:00:26;;;;;;;16.88;3.92;;;;;;;11.99;93.11;100937.16;5060993;28;20075;-74
2022/11/07 09:02:51;;;;;;;13.90;3.83;;;;;;;12.04;93.75;100939.84;5063458;28;20096;-75
2022/11/07 09:05:16;;;;;;;16.90;3.95;;;;;;;12.07;93.78;100952.97;5061968;28;20017;-75
2022/11/07 09:07:41;;;;;;;16.42;4.35;;;;;;;12.08;92.98;100956.44;5063523;28;20040;-75
2022/11/07 09:10:07;;;;;;;17.15;4.07;;;;;;;12.09;93.25;100953.00;5062279;28;20032;-75
2022/11/07 09:12:33;;;;;;;15.10;4.13;;;;;;;12.10;93.19;100953.00;5061984;28;20055;-74
2022/11/07 09:14:58;;;;;;;14.15;3.85;;;;;;;12.11;92.92;100954.78;5062430;28;20044;-73
2022/11/07 09:17:23;;;;;;;17.80;3.70;;;;;;;12.11;93.07;100957.41;5062091;28;20066;-74
2022/11/07 09:19:48;;;;;;;14.48;4.93;;;;;;;12.12;92.71;100963.50;5063111;28;20083;-76
2022/11/07 09:22:14;;;;;;;16.98;4.20;;;;;;;12.14;92.84;100961.81;5062087;28;20024;-74
2022/11/07 09:24:39;;;;;;;18.77;4.00;;;;;;;12.14;93.02;100961.81;5063246;28;20110;-75
2022/11/07 09:27:04;;;;;;;15.40;3.63;;;;;;;12.17;92.48;100969.69;5061220;28;20096;-75
2022/11/07 09:29:30;;;;;;;13.60;3.97;;;;;;;12.18;92.36;100966.25;5063291;28;20029;-75
2022/11/07 09:31:55;;;;;;;15.98;4.10;;;;;;;12.21;92.38;100973.22;5055039;28;20102;-75
2022/11/07 09:34:20;;;;;;;15.55;3.92;;;;;;;12.24;92.64;100968.06;5062611;28;20041;-76
2022/11/07 09:36:45;;;;;;;14.98;4.00;;;;;;;12.24;92.50;100968.97;5061436;28;20025;-76
2022/11/07 09:39:11;;;;;;;17.52;3.72;;;;;;;12.26;92.45;100969.84;5063478;28;20084;-76
2022/11/07 09:42:11;;;;;;;18.85;3.67;;;;;;;12.28;92.53;100969.88;5062674;28;20260;-75
2022/11/07 09:44:42;;;;;;;14.60;4.57;;;;;;;12.28;92.44;100970.78;5063322;28;20036;-77
2022/11/07 09:47:13;;;;;;;13.88;4.22;;;;;;;12.29;91.98;100966.44;5061002;28;20104;-75
2022/11/07 09:49:51;;;;;;;17.65;4.20;;;;;;;12.33;92.52;100976.09;5070362;28;20028;-76
2022/11/07 09:52:24;;;;;;;15.10;4.50;;;;;;;12.37;92.33;100974.41;5061558;28;20032;-76
2022/11/07 09:55:00;;;;;;;14.65;4.07;;;;;;;12.40;92.17;100980.56;5060627;28;20078;-77
2022/11/07 09:57:31;;;;;;;20.20;4.05;;;;;;;12.44;92.23;100974.56;5060795;28;20238;-67
2022/11/07 10:00:00;;;;;;;18.33;5.15;;;;;;;12.45;91.16;100978.03;5062650;28;20032;-67
2022/11/07 10:02:39;;;;;;;15.98;4.30;;;;;;;12.45;91.93;100976.28;5060163;28;20028;-67
2022/11/07 10:05:05;;;;;;;13.20;3.80;;;;;;;12.47;91.58;100984.16;5061860;28;20179;-67
2022/11/07 10:08:08;;;;;;;17.17;3.63;;;;;;;12.51;91.61;100978.13;5062175;28;20067;-67
2022/11/07 10:10:39;;;;;;;20.27;4.07;;;;;;;12.52;91.62;100977.28;5060804;28;20180;-66
2022/11/07 10:13:31;;;;;;;19.33;4.78;;;;;;;12.53;91.91;100982.53;5060348;28;20048;-67
2022/11/07 10:16:07;;;;;;;15.90;3.55;;;;;;;12.55;91.26;100981.69;5059153;28;20096;-67
2022/11/07 10:19:04;;;;;;;16.67;4.13;;;;;;;12.57;91.63;100986.13;5059053;28;20195;-67
2022/11/07 10:21:44;;;;;;;13.15;3.88;;;;;;;12.56;91.20;100996.50;5071621;28;20027;-67
2022/11/07 10:24:36;;;;;;;16.35;3.95;;;;;;;12.59;90.98;100996.59;5061046;28;20119;-67
2022/11/07 10:27:05;;;;;;;16.80;4.72;;;;;;;12.61;90.40;100990.50;5060189;28;20037;-76
2022/11/07 10:29:38;;;;;;;;;;;;;;;12.66;91.04;100991.50;5062331;28;20017;-76
2022/11/07 10:32:22;;;;;;;12.02;3.55;;;;;;;12.65;90.84;100994.94;5061268;28;19954;-76
2022/11/07 10:34:53;;;;;;;19.23;4.15;;;;;;;12.70;90.39;100995.03;5061591;28;20049;-76
2022/11/07 10:37:18;;;;;;;13.00;3.85;;;;;;;12.74;89.40;100990.75;5061894;28;20115;-76
2022/11/07 10:39:43;;;;;;;18.55;4.32;;;;;;;12.77;89.60;100990.78;5058485;28;20203;-77
2022/11/07 10:42:17;;;;;;;17.05;4.53;;;;;;;12.82;89.78;101012.69;5052041;28;20049;-78
2022/11/07 10:44:43;;;;;;;16.13;4.20;;;;;;;12.86;89.11;101017.97;5060559;28;20033;-77
2022/11/07 10:47:19;;;;;;;11.00;3.53;;;;;;;12.90;89.18;101000.59;5058723;28;20017;-78
2022/11/07 10:49:59;;;;;;;12.23;3.90;;;;;;;12.95;88.96;101001.56;5057679;28;20029;-77
2022/11/07 10:52:26;;;;;;;23.63;4.45;;;;;;;13.00;88.79;101001.63;5059714;28;20021;-78
2022/11/07 10:55:05;;;;;;;16.70;4.10;;;;;;;13.10;89.24;101005.28;5070190;28;20032;-78
2022/11/07 10:57:33;;;;;;;13.95;3.83;;;;;;;13.14;87.64;101007.09;5060295;28;20023;-78
2022/11/07 10:59:58;;;;;;;13.75;3.58;;;;;;;13.17;87.50;101007.13;5060652;28;20078;-76
2022/11/07 11:02:28;;;;;;;16.95;4.22;;;;;;;13.18;87.90;101004.53;5060761;28;20044;-79
2022/11/07 11:04:56;;;;;;;14.98;3.70;;;;;;;13.21;87.29;101011.56;5060992;28;20095;-78
2022/11/07 11:07:33;;;;;;;17.75;3.65;;;;;;;13.27;87.43;101003.81;5057010;28;20048;-77
2022/11/07 11:09:58;;;;;;;16.67;3.58;;;;;;;13.30;86.80;101016.06;5058931;28;20086;-78
2022/11/07 11:12:27;;;;;;;16.25;3.78;;;;;;;13.28;86.25;101005.56;5058569;28;20046;-78
2022/11/07 11:15:10;;;;;;;12.88;3.72;;;;;;;13.30;86.49;101003.84;5059581;28;20083;-78
2022/11/07 11:17:36;;;;;;;16.80;3.60;;;;;;;13.31;86.02;101005.59;5058878;28;20025;-79
2022/11/07 11:20:01;;;;;;;14.93;3.90;;;;;;;13.32;85.80;100989.03;5033184;28;20177;-79
2022/11/07 11:22:28;;;;;;;16.40;3.67;;;;;;;13.34;85.99;101003.06;5058487;28;20323;-78
2022/11/07 11:25:09;;;;;;;14.80;3.90;;;;;;;13.35;85.64;100991.75;5059074;28;20033;-77
2022/11/07 11:27:37;;;;;;;16.23;3.85;;;;;;;13.33;85.42;100988.19;5004357;28;20100;-73
2022/11/07 11:30:20;;;;;;;15.00;3.60;;;;;;;13.36;86.22;100990.00;5065697;28;20090;-72
2022/11/07 11:33:10;;;;;;;16.33;3.67;;;;;;;13.37;85.95;100983.91;5080209;28;20319;-72